Flight Track Log - Related Links

Times and Time Zones

All times are in EDT time to prevent confusion due to time zone crossing. See the SWA655 flight status page for this flight to view local times or setup timezone preferences in your user account.

Time Position Orientation Groundspeed Altitude Reporting Facility
EDT Latitude Longitude Course Direction KTS MPH feet Rate Location/Type
Fri 02:23:54 PM 33.6578 -117.8786 320° Northwest 155 178 1,200  Level Los Angeles Center
Fri 02:24:56 PM 33.6089 -117.8944 195° South 156 180 3,100 2,129 Climbing Los Angeles Center
Fri 02:25:58 PM 33.5539 -117.9092 193° South 190 219 5,600 3,000 Climbing Los Angeles Center
Fri 02:27:00 PM 33.5214 -117.9742 239° Southwest 232 267 9,300 2,952 Climbing Los Angeles Center
Fri 02:28:02 PM 33.5697 -118.0411 311° West 276 318 11,700 2,592 Climbing Los Angeles Center
Fri 02:29:00 PM 34.0608 -118.2575 320° Northwest  Level Estimated
Fri 02:29:05 PM 33.6394 -118.1169 318° Northwest 326 375 14,700  Level Los Angeles Center
Fri 02:30:07 PM 33.7261 -118.2100 318° Northwest 350 403 18,700 3,194 Climbing Los Angeles Center
Fri 02:31:09 PM 33.8017 -118.2906 318° Northwest 376 433 21,300 2,468 Climbing Los Angeles Center
Fri 02:32:11 PM 33.8806 -118.3758 318° Northwest 389 448 23,800 2,323 Climbing Los Angeles Center
Fri 02:33:13 PM 33.9736 -118.4525 326° Northwest 411 473 26,100 2,323 Climbing Los Angeles Center
Fri 02:34:15 PM 34.1036 -118.5161 338° Northwest 419 482 28,600 2,081 Climbing Los Angeles Center
Fri 02:35:17 PM 34.2153 -118.5700 338° Northwest 430 495 30,400 1,694 Climbing Los Angeles Center
Fri 02:36:19 PM 34.3294 -118.6272 338° Northwest 443 510 32,100 1,887 Climbing Los Angeles Center
Fri 02:37:21 PM 34.4419 -118.6808 339° North 438 504 34,300 1,839 Climbing Los Angeles Center
Fri 02:38:23 PM 34.5517 -118.7361 337° Northwest 429 494 35,900 1,392 Climbing Los Angeles Center
Fri 02:39:26 PM 34.6631 -118.7908 338° Northwest 431 496 37,200 1,488 Climbing Los Angeles Center
Fri 02:40:28 PM 34.7939 -118.8592 337° Northwest 428 493 39,000 1,306 Climbing Los Angeles Center
Fri 02:41:30 PM 34.8858 -118.9442 323° Northwest 421 484 39,900 484 Climbing Los Angeles Center
Fri 02:42:32 PM 34.9731 -119.0231 323° Northwest 418 481 40,000 48 Climbing Los Angeles Center
Fri 02:43:34 PM 35.0808 -119.1336 320° Northwest 423 487 40,000  Level Los Angeles Center
Fri 02:44:36 PM 35.1744 -119.2217 322° Northwest 426 490 40,000  Level Los Angeles Center
Fri 02:45:38 PM 35.2656 -119.3119 321° Northwest 423 487 40,000  Level Los Angeles Center
Fri 02:46:40 PM 35.3572 -119.4022 321° Northwest 422 486 40,000  Level Los Angeles Center
Fri 02:47:18 PM 35.4086 -119.4539 321° Northwest 421 484 40,000  Level Oakland Center
Fri 02:48:20 PM 35.4986 -119.5450 321° Northwest 421 484 40,000  Level Oakland Center
Fri 02:49:21 PM 35.6092 -119.6531 322° Northwest 425 489 40,000  Level Oakland Center
Fri 02:50:23 PM 35.6994 -119.7431 321° Northwest 423 487 40,000  Level Oakland Center
Fri 02:51:24 PM 35.7900 -119.8336 321° Northwest 424 488 40,000  Level Oakland Center
Fri 02:52:26 PM 35.8789 -119.9236 321° Northwest 421 484 40,000  Level Oakland Center
Fri 02:53:27 PM 35.9692 -120.0144 321° Northwest 423 487 40,000  Level Oakland Center
Fri 02:54:29 PM 36.0606 -120.1056 321° Northwest 425 489 40,000 -439 Level Oakland Center
Fri 02:55:30 PM 36.1511 -120.1983 320° Northwest 426 490 39,100 -2,146 Descending Oakland Center
Fri 02:56:32 PM 36.2606 -120.3108 320° Northwest 429 494 35,600 -2,780 Descending Oakland Center
Fri 02:57:33 PM 36.3536 -120.4078 320° Northwest 437 503 33,400 -2,537 Descending Oakland Center
Fri 02:58:35 PM 36.4461 -120.5008 321° Northwest 430 495 30,400 -2,537 Descending Oakland Center
Fri 02:59:36 PM 36.5383 -120.5947 321° Northwest 430 495 28,200 -2,146 Descending Oakland Center
Fri 03:00:38 PM 36.6267 -120.6889 319° Northwest 418 481 26,000 -2,098 Descending Oakland Center
Fri 03:01:39 PM 36.7133 -120.7786 320° Northwest 408 470 23,900 -1,659 Descending Oakland Center
Fri 03:02:41 PM 36.7961 -120.8672 319° Northwest 393 452 22,600 -1,610 Descending Oakland Center
Fri 03:03:42 PM 36.8775 -120.9606 317° Northwest 380 437 20,600 -1,805 Descending Oakland Center
Fri 03:04:44 PM 36.9525 -121.0472 317° Northwest 369 425 18,900 -1,756 Descending Oakland Center
Fri 03:05:45 PM 37.0375 -121.1444 318° Northwest 348 400 17,000 -1,854 Descending Oakland Center
Fri 03:06:47 PM 37.1056 -121.2244 317° Northwest 337 388 15,100 -1,854 Descending Oakland Center
Fri 03:07:48 PM 37.1725 -121.3031 317° Northwest 331 381 13,200 -1,707 Descending Oakland Center
Fri 03:08:50 PM 37.2369 -121.3775 317° Northwest 319 367 11,600 -1,366 Descending Oakland Center
Fri 03:09:51 PM 37.3003 -121.4511 317° Northwest 310 357 10,400 -1,415 Descending Oakland Center
Fri 03:10:53 PM 37.3597 -121.5203 317° Northwest 288 331 8,700 -1,579 Descending Oakland Center
Fri 03:11:26 PM 37.4000 -121.5667 318° Northwest 290 334 7,900 -774 Descending Northern Cal TRACON
Fri 03:12:26 PM 37.4500 -121.6333 313° West 284 327 7,500 -190 Descending Northern Cal TRACON
Fri 03:13:32 PM 37.5167 -121.7000 322° Northwest 283 326 7,500 -619 Level Northern Cal TRACON
Fri 03:14:32 PM 37.5333 -121.8000 282° West 281 323 6,200 -1,000 Descending Northern Cal TRACON
Fri 03:15:32 PM 37.5500 -121.8833 284° West 258 297 5,500 -1,100 Descending Northern Cal TRACON
Fri 03:16:32 PM 37.5667 -121.9667 284° West 265 305 4,000 -1,053 Descending Northern Cal TRACON
Fri 03:17:26 PM 37.5833 -122.0500 284° West 236 272 3,500 -950 Descending Northern Cal TRACON
Fri 03:18:32 PM 37.6333 -122.1000 322° Northwest 207 238 2,100 -1,152 Descending Northern Cal TRACON
Fri 03:19:05 PM 37.6453 -122.1300 297° West 216 249 1,600 -766 Descending Oakland Center
Fri 03:20:06 PM 37.6711 -122.1703 309° West 173 199 900 -683 Descending Oakland Center
Fri 03:21:08 PM 37.6933 -122.2022 311° West 139 160 200 -677 Descending Oakland Center
Fri 03:24:00 PM 37.7167 -122.2167 270° West  Level FlightAware Approximate

Login

Don't have an account? Register now (free) for customized features, flight alerts, and more!